sensor_id;sensor_type;location;lat;lon;timestamp;pressure;altitude;pressure_sealevel;temperature;humidity
18985;BME280;9626;52.552;13.436;2022-12-05T00:01:22;101282.63;;;2.15;100.00
18985;BME280;9626;52.552;13.436;2022-12-05T00:03:51;101285.22;;;2.14;100.00
18985;BME280;9626;52.552;13.436;2022-12-05T00:06:17;101273.88;;;2.12;100.00
18985;BME280;9626;52.552;13.436;2022-12-05T00:08:44;101277.34;;;2.12;100.00
18985;BME280;9626;52.552;13.436;2022-12-05T00:11:18;101277.31;;;2.11;100.00
18985;BME280;9626;52.552;13.436;2022-12-05T00:13:45;101282.53;;;2.11;100.00
18985;BME280;9626;52.552;13.436;2022-12-05T00:16:15;101269.56;;;2.15;100.00
18985;BME280;9626;52.552;13.436;2022-12-05T00:18:42;101273.94;;;2.15;100.00
18985;BME280;9626;52.552;13.436;2022-12-05T00:21:13;101272.81;;;2.05;100.00
18985;BME280;9626;52.552;13.436;2022-12-05T00:23:40;101285.94;;;2.08;100.00
18985;BME280;9626;52.552;13.436;2022-12-05T00:26:07;101292.16;;;2.12;100.00
18985;BME280;9626;52.552;13.436;2022-12-05T00:28:33;101279.09;;;2.12;100.00
18985;BME280;9626;52.552;13.436;2022-12-05T00:31:10;101291.31;;;2.13;100.00
18985;BME280;9626;52.552;13.436;2022-12-05T00:33:37;101285.31;;;2.17;100.00
18985;BME280;9626;52.552;13.436;2022-12-05T00:36:14;101290.38;;;2.11;100.00
18985;BME280;9626;52.552;13.436;2022-12-05T00:38:41;101282.59;;;2.14;100.00
18985;BME280;9626;52.552;13.436;2022-12-05T00:41:10;101287.81;;;2.14;100.00
18985;BME280;9626;52.552;13.436;2022-12-05T00:43:37;101282.59;;;2.14;100.00
18985;BME280;9626;52.552;13.436;2022-12-05T00:46:08;101289.59;;;2.15;100.00
18985;BME280;9626;52.552;13.436;2022-12-05T00:48:35;101287.94;;;2.17;100.00
18985;BME280;9626;52.552;13.436;2022-12-05T00:51:04;101276.56;;;2.16;100.00
18985;BME280;9626;52.552;13.436;2022-12-05T00:53:31;101280.03;;;2.15;100.00
18985;BME280;9626;52.552;13.436;2022-12-05T00:56:06;101283.56;;;2.17;100.00
18985;BME280;9626;52.552;13.436;2022-12-05T00:58:33;101289.66;;;2.18;100.00
18985;BME280;9626;52.552;13.436;2022-12-05T01:01:14;101281.03;;;2.20;100.00
18985;BME280;9626;52.552;13.436;2022-12-05T01:03:42;101282.00;;;2.24;100.00
18985;BME280;9626;52.552;13.436;2022-12-05T01:06:08;101282.78;;;2.20;100.00
18985;BME280;9626;52.552;13.436;2022-12-05T01:08:35;101279.31;;;2.21;100.00
18985;BME280;9626;52.552;13.436;2022-12-05T01:11:03;101278.41;;;2.20;100.00
18985;BME280;9626;52.552;13.436;2022-12-05T01:13:29;101275.53;;;2.10;100.00
18985;BME280;9626;52.552;13.436;2022-12-05T01:15:55;101275.63;;;2.13;100.00
18985;BME280;9626;52.552;13.436;2022-12-05T01:18:22;101277.31;;;2.11;100.00
18985;BME280;9626;52.552;13.436;2022-12-05T01:20:49;101268.63;;;2.12;100.00
18985;BME280;9626;52.552;13.436;2022-12-05T01:23:16;101266.94;;;2.14;100.00
18985;BME280;9626;52.552;13.436;2022-12-05T01:25:44;101256.56;;;2.17;100.00
18985;BME280;9626;52.552;13.436;2022-12-05T01:28:10;101264.44;;;2.18;100.00
18985;BME280;9626;52.552;13.436;2022-12-05T01:30:43;101260.94;;;2.18;100.00
18985;BME280;9626;52.552;13.436;2022-12-05T01:33:09;101261.03;;;2.21;100.00
18985;BME280;9626;52.552;13.436;2022-12-05T01:35:38;101266.28;;;2.23;100.00
18985;BME280;9626;52.552;13.436;2022-12-05T01:38:05;101263.69;;;2.24;100.00
18985;BME280;9626;52.552;13.436;2022-12-05T01:40:32;101261.84;;;2.20;100.00
18985;BME280;9626;52.552;13.436;2022-12-05T01:43:01;101266.13;;;2.16;100.00
18985;BME280;9626;52.552;13.436;2022-12-05T01:45:37;101256.56;;;2.17;100.00
18985;BME280;9626;52.552;13.436;2022-12-05T01:48:10;101261.91;;;2.22;100.00
18985;BME280;9626;52.552;13.436;2022-12-05T01:50:38;101258.34;;;2.19;100.00
18985;BME280;9626;52.552;13.436;2022-12-05T01:53:05;101257.47;;;2.19;100.00
18985;BME280;9626;52.552;13.436;2022-12-05T01:55:33;101265.31;;;2.19;100.00
18985;BME280;9626;52.552;13.436;2022-12-05T01:58:01;101253.22;;;2.23;100.00
18985;BME280;9626;52.552;13.436;2022-12-05T02:00:28;101255.88;;;2.24;100.00
18985;BME280;9626;52.552;13.436;2022-12-05T02:03:02;101249.59;;;2.17;100.00
18985;BME280;9626;52.552;13.436;2022-12-05T02:05:32;101255.00;;;2.24;100.00
18985;BME280;9626;52.552;13.436;2022-12-05T02:08:01;101248.91;;;2.26;100.00
18985;BME280;9626;52.552;13.436;2022-12-05T02:10:32;101243.81;;;2.31;100.00
18985;BME280;9626;52.552;13.436;2022-12-05T02:16:01;101255.88;;;2.26;100.00
18985;BME280;9626;52.552;13.436;2022-12-05T02:34:51;101245.16;;;2.13;100.00
18985;BME280;9626;52.552;13.436;2022-12-05T02:37:30;101250.41;;;2.15;100.00
18985;BME280;9626;52.552;13.436;2022-12-05T02:40:23;101251.28;;;2.15;100.00
18985;BME280;9626;52.552;13.436;2022-12-05T02:42:59;101253.88;;;2.14;100.00
18985;BME280;9626;52.552;13.436;2022-12-05T02:45:27;101253.88;;;2.14;100.00
18985;BME280;9626;52.552;13.436;2022-12-05T02:47:56;101267.03;;;2.17;100.00
18985;BME280;9626;52.552;13.436;2022-12-05T02:50:26;101256.47;;;2.14;100.00
18985;BME280;9626;52.552;13.436;2022-12-05T02:52:57;101264.28;;;2.12;100.00
18985;BME280;9626;52.552;13.436;2022-12-05T02:55:27;101258.19;;;2.12;100.00
18985;BME280;9626;52.552;13.436;2022-12-05T02:57:57;101249.53;;;2.14;100.00
18985;BME280;9626;52.552;13.436;2022-12-05T03:00:25;101245.19;;;2.15;100.00
18985;BME280;9626;52.552;13.436;2022-12-05T03:02:55;101246.91;;;2.13;100.00
18985;BME280;9626;52.552;13.436;2022-12-05T03:05:31;101230.44;;;2.17;100.00
18985;BME280;9626;52.552;13.436;2022-12-05T03:08:03;101237.34;;;2.15;100.00
18985;BME280;9626;52.552;13.436;2022-12-05T03:10:33;101238.22;;;2.15;100.00
18985;BME280;9626;52.552;13.436;2022-12-05T03:13:06;101228.59;;;2.13;100.00
18985;BME280;9626;52.552;13.436;2022-12-05T03:16:00;101224.25;;;2.13;100.00
18985;BME280;9626;52.552;13.436;2022-12-05T03:18:37;101230.44;;;2.17;100.00
18985;BME280;9626;52.552;13.436;2022-12-05T03:23:41;101229.47;;;2.13;100.00
18985;BME280;9626;52.552;13.436;2022-12-05T03:28:48;101231.28;;;2.16;100.00
18985;BME280;9626;52.552;13.436;2022-12-05T03:31:32;101229.50;;;2.15;100.00
18985;BME280;9626;52.552;13.436;2022-12-05T03:34:07;101238.16;;;2.12;100.00
18985;BME280;9626;52.552;13.436;2022-12-05T03:36:43;101238.19;;;2.14;100.00
18985;BME280;9626;52.552;13.436;2022-12-05T03:39:27;101238.22;;;2.15;100.00
18985;BME280;9626;52.552;13.436;2022-12-05T03:42:02;101226.06;;;2.16;100.00
18985;BME280;9626;52.552;13.436;2022-12-05T03:47:19;101234.75;;;2.16;100.00
18985;BME280;9626;52.552;13.436;2022-12-05T03:49:55;101231.31;;;2.17;100.00
18985;BME280;9626;52.552;13.436;2022-12-05T03:52:43;101235.72;;;2.20;100.00
18985;BME280;9626;52.552;13.436;2022-12-05T03:55:12;101228.72;;;2.19;100.00
18985;BME280;9626;52.552;13.436;2022-12-05T03:57:45;101227.81;;;2.17;100.00
18985;BME280;9626;52.552;13.436;2022-12-05T04:00:18;101225.22;;;2.17;100.00
18985;BME280;9626;52.552;13.436;2022-12-05T04:05:26;101226.16;;;2.20;100.00
18985;BME280;9626;52.552;13.436;2022-12-05T04:08:08;101222.66;;;2.20;100.00
18985;BME280;9626;52.552;13.436;2022-12-05T04:10:38;101225.13;;;2.14;100.00
18985;BME280;9626;52.552;13.436;2022-12-05T04:13:28;101227.75;;;2.15;100.00
18985;BME280;9626;52.552;13.436;2022-12-05T04:16:01;101217.31;;;2.15;100.00
18985;BME280;9626;52.552;13.436;2022-12-05T04:18:57;101219.91;;;2.14;100.00
18985;BME280;9626;52.552;13.436;2022-12-05T04:21:30;101226.91;;;2.15;100.00
18985;BME280;9626;52.552;13.436;2022-12-05T04:24:11;101223.44;;;2.16;100.00
18985;BME280;9626;52.552;13.436;2022-12-05T04:27:21;101220.94;;;2.22;100.00
18985;BME280;9626;52.552;13.436;2022-12-05T04:30:04;101220.13;;;2.23;100.00
18985;BME280;9626;52.552;13.436;2022-12-05T04:33:09;101227.06;;;2.21;100.00
18985;BME280;9626;52.552;13.436;2022-12-05T04:35:44;101223.53;;;2.20;100.00
18985;BME280;9626;52.552;13.436;2022-12-05T04:38:19;101221.81;;;2.21;100.00
18985;BME280;9626;52.552;13.436;2022-12-05T04:40:53;101225.31;;;2.22;100.00
18985;BME280;9626;52.552;13.436;2022-12-05T04:43:23;101221.81;;;2.21;100.00
18985;BME280;9626;52.552;13.436;2022-12-05T04:45:51;101230.44;;;2.17;100.00
18985;BME280;9626;52.552;13.436;2022-12-05T04:48:20;101220.63;;;2.08;100.00
18985;BME280;9626;52.552;13.436;2022-12-05T04:50:48;101224.22;;;2.12;100.00
18985;BME280;9626;52.552;13.436;2022-12-05T04:53:16;101218.16;;;2.13;100.00
18985;BME280;9626;52.552;13.436;2022-12-05T04:55:45;101232.00;;;2.09;100.00
18985;BME280;9626;52.552;13.436;2022-12-05T05:03:57;101226.75;;;2.09;100.00
18985;BME280;9626;52.552;13.436;2022-12-05T05:06:24;101220.66;;;2.10;100.00
18985;BME280;9626;52.552;13.436;2022-12-05T05:08:54;101223.22;;;2.07;100.00
18985;BME280;9626;52.552;13.436;2022-12-05T05:11:29;101226.66;;;2.06;100.00
18985;BME280;9626;52.552;13.436;2022-12-05T05:13:57;101227.56;;;2.06;100.00
18985;BME280;9626;52.552;13.436;2022-12-05T05:16:34;101215.41;;;2.08;100.00
18985;BME280;9626;52.552;13.436;2022-12-05T05:19:00;101228.53;;;2.11;100.00
18985;BME280;9626;52.552;13.436;2022-12-05T05:21:33;101229.41;;;2.10;100.00
18985;BME280;9626;52.552;13.436;2022-12-05T05:23:59;101221.44;;;2.06;100.00
18985;BME280;9626;52.552;13.436;2022-12-05T05:26:27;101224.09;;;2.07;100.00
18985;BME280;9626;52.552;13.436;2022-12-05T05:28:55;101230.28;;;2.11;100.00
18985;BME280;9626;52.552;13.436;2022-12-05T05:31:22;101226.84;;;2.12;100.00
18985;BME280;9626;52.552;13.436;2022-12-05T05:33:50;101226.91;;;2.15;100.00
18985;BME280;9626;52.552;13.436;2022-12-05T05:36:16;101229.50;;;2.15;100.00
18985;BME280;9626;52.552;13.436;2022-12-05T05:38:48;101223.41;;;2.14;100.00
18985;BME280;9626;52.552;13.436;2022-12-05T05:41:26;101226.06;;;2.16;100.00
18985;BME280;9626;52.552;13.436;2022-12-05T05:43:53;101220.78;;;2.14;100.00
18985;BME280;9626;52.552;13.436;2022-12-05T05:46:22;101228.59;;;2.13;100.00
18985;BME280;9626;52.552;13.436;2022-12-05T05:48:49;101225.16;;;2.15;100.00
18985;BME280;9626;52.552;13.436;2022-12-05T05:51:16;101225.16;;;2.15;100.00
18985;BME280;9626;52.552;13.436;2022-12-05T05:53:43;101222.53;;;2.15;100.00
18985;BME280;9626;52.552;13.436;2022-12-05T05:56:11;101229.50;;;2.15;100.00
18985;BME280;9626;52.552;13.436;2022-12-05T05:58:38;101229.50;;;2.15;100.00
18985;BME280;9626;52.552;13.436;2022-12-05T06:01:09;101230.34;;;2.14;100.00
18985;BME280;9626;52.552;13.436;2022-12-05T06:03:36;101227.69;;;2.12;100.00
18985;BME280;9626;52.552;13.436;2022-12-05T06:06:05;101233.06;;;2.17;100.00
18985;BME280;9626;52.552;13.436;2022-12-05T06:08:34;101233.00;;;2.15;100.00
18985;BME280;9626;52.552;13.436;2022-12-05T06:11:05;101240.78;;;2.14;100.00
18985;BME280;9626;52.552;13.436;2022-12-05T06:13:31;101238.16;;;2.12;100.00
18985;BME280;9626;52.552;13.436;2022-12-05T06:15:57;101244.28;;;2.13;100.00
18985;BME280;9626;52.552;13.436;2022-12-05T06:18:23;101241.69;;;2.14;100.00
18985;BME280;9626;52.552;13.436;2022-12-05T06:20:56;101243.53;;;2.18;100.00
18985;BME280;9626;52.552;13.436;2022-12-05T06:23:26;101235.78;;;2.23;100.00
18985;BME280;9626;52.552;13.436;2022-12-05T06:25:54;101232.34;;;2.24;100.00
18985;BME280;9626;52.552;13.436;2022-12-05T06:28:22;101239.19;;;2.19;100.00
18985;BME280;9626;52.552;13.436;2022-12-05T06:30:49;101239.22;;;2.20;100.00
18985;BME280;9626;52.552;13.436;2022-12-05T06:33:15;101246.13;;;2.17;100.00
18985;BME280;9626;52.552;13.436;2022-12-05T06:35:42;101244.38;;;2.17;100.00
18985;BME280;9626;52.552;13.436;2022-12-05T06:38:08;101240.97;;;2.20;100.00
18985;BME280;9626;52.552;13.436;2022-12-05T06:40:39;101246.19;;;2.20;100.00
18985;BME280;9626;52.552;13.436;2022-12-05T06:43:05;101251.47;;;2.23;100.00
18985;BME280;9626;52.552;13.436;2022-12-05T06:45:31;101255.88;;;2.26;100.00
18985;BME280;9626;52.552;13.436;2022-12-05T06:47:57;101258.47;;;2.24;100.00
18985;BME280;9626;52.552;13.436;2022-12-05T06:50:23;101256.69;;;2.23;100.00
18985;BME280;9626;52.552;13.436;2022-12-05T06:52:49;101261.16;;;2.27;100.00
18985;BME280;9626;52.552;13.436;2022-12-05T06:55:16;101259.44;;;2.28;100.00
18985;BME280;9626;52.552;13.436;2022-12-05T06:57:42;101262.94;;;2.28;100.00
18985;BME280;9626;52.552;13.436;2022-12-05T07:00:08;101266.44;;;2.30;100.00
18985;BME280;9626;52.552;13.436;2022-12-05T07:02:53;101263.78;;;2.29;100.00
18985;BME280;9626;52.552;13.436;2022-12-05T07:05:19;101269.00;;;2.27;100.00
18985;BME280;9626;52.552;13.436;2022-12-05T07:07:45;101268.94;;;2.24;100.00
18985;BME280;9626;52.552;13.436;2022-12-05T07:10:12;101268.97;;;2.26;100.00
18985;BME280;9626;52.552;13.436;2022-12-05T07:12:38;101274.22;;;2.27;100.00
18985;BME280;9626;52.552;13.436;2022-12-05T07:15:04;101275.94;;;2.25;100.00
18985;BME280;9626;52.552;13.436;2022-12-05T07:17:35;101273.38;;;2.28;100.00
18985;BME280;9626;52.552;13.436;2022-12-05T07:20:02;101270.59;;;2.22;100.00
18985;BME280;9626;52.552;13.436;2022-12-05T07:22:28;101275.00;;;2.23;100.00
18985;BME280;9626;52.552;13.436;2022-12-05T07:24:54;101269.91;;;2.28;100.00
18985;BME280;9626;52.552;13.436;2022-12-05T07:27:20;101276.03;;;2.30;100.00
18985;BME280;9626;52.552;13.436;2022-12-05T07:29:46;101275.94;;;2.25;100.00
18985;BME280;9626;52.552;13.436;2022-12-05T07:32:12;101278.56;;;2.27;100.00
18985;BME280;9626;52.552;13.436;2022-12-05T07:34:38;101283.06;;;2.32;100.00
18985;BME280;9626;52.552;13.436;2022-12-05T07:37:04;101276.00;;;2.28;100.00
18985;BME280;9626;52.552;13.436;2022-12-05T07:39:30;101277.66;;;2.26;100.00
18985;BME280;9626;52.552;13.436;2022-12-05T07:41:56;101275.97;;;2.27;100.00
18985;BME280;9626;52.552;13.436;2022-12-05T07:44:22;101282.09;;;2.29;100.00
18985;BME280;9626;52.552;13.436;2022-12-05T07:46:48;101281.16;;;2.25;100.00
18985;BME280;9626;52.552;13.436;2022-12-05T07:49:14;101281.22;;;2.28;100.00
18985;BME280;9626;52.552;13.436;2022-12-05T07:51:43;101274.22;;;2.27;100.00
18985;BME280;9626;52.552;13.436;2022-12-05T07:54:09;101281.22;;;2.28;100.00
18985;BME280;9626;52.552;13.436;2022-12-05T07:56:35;101284.72;;;2.30;100.00
18985;BME280;9626;52.552;13.436;2022-12-05T07:59:01;101282.13;;;2.30;100.00
18985;BME280;9626;52.552;13.436;2022-12-05T08:01:28;101273.38;;;2.28;100.00
18985;BME280;9626;52.552;13.436;2022-12-05T08:03:56;101280.41;;;2.31;100.00
18985;BME280;9626;52.552;13.436;2022-12-05T08:06:25;101283.13;;;2.35;100.00
18985;BME280;9626;52.552;13.436;2022-12-05T08:08:52;101279.59;;;2.33;100.00
18985;BME280;9626;52.552;13.436;2022-12-05T08:11:21;101290.06;;;2.33;100.00
18985;BME280;9626;52.552;13.436;2022-12-05T08:13:48;101277.81;;;2.32;100.00
18985;BME280;9626;52.552;13.436;2022-12-05T08:16:17;101287.34;;;2.30;100.00
18985;BME280;9626;52.552;13.436;2022-12-05T08:18:43;101291.78;;;2.33;100.00
18985;BME280;9626;52.552;13.436;2022-12-05T08:21:16;101289.25;;;2.36;100.00
18985;BME280;9626;52.552;13.436;2022-12-05T08:23:43;101291.91;;;2.38;100.00
18985;BME280;9626;52.552;13.436;2022-12-05T08:26:14;101287.66;;;2.43;100.00
18985;BME280;9626;52.552;13.436;2022-12-05T08:28:42;101288.72;;;3.33;100.00
18985;BME280;9626;52.552;13.436;2022-12-05T08:31:17;101288.97;;;3.03;100.00
18985;BME280;9626;52.552;13.436;2022-12-05T08:33:43;101295.47;;;2.81;100.00
18985;BME280;9626;52.552;13.436;2022-12-05T08:36:12;101282.25;;;2.73;100.00
18985;BME280;9626;52.552;13.436;2022-12-05T08:38:38;101286.38;;;2.63;100.00
18985;BME280;9626;52.552;13.436;2022-12-05T08:41:08;101282.78;;;2.58;100.00
18985;BME280;9626;52.552;13.436;2022-12-05T08:43:35;101278.28;;;2.51;100.00
18985;BME280;9626;52.552;13.436;2022-12-05T08:46:01;101284.28;;;2.47;100.00
18985;BME280;9626;52.552;13.436;2022-12-05T08:48:29;101273.03;;;2.51;100.00
18985;BME280;9626;52.552;13.436;2022-12-05T08:50:56;101282.59;;;2.50;100.00
18985;BME280;9626;52.552;13.436;2022-12-05T08:53:22;101283.41;;;2.48;100.00
18985;BME280;9626;52.552;13.436;2022-12-05T08:55:48;101279.03;;;2.47;100.00
18985;BME280;9626;52.552;13.436;2022-12-05T08:58:14;101287.72;;;2.46;100.00
18985;BME280;9626;52.552;13.436;2022-12-05T09:00:40;101281.66;;;2.47;100.00
18985;BME280;9626;52.552;13.436;2022-12-05T09:03:08;101286.00;;;2.46;100.00
18985;BME280;9626;52.552;13.436;2022-12-05T09:05:35;101275.47;;;2.43;100.00
18985;BME280;9626;52.552;13.436;2022-12-05T09:08:02;101281.50;;;2.41;100.00
18985;BME280;9626;52.552;13.436;2022-12-05T09:10:29;101284.22;;;2.45;100.00
18985;BME280;9626;52.552;13.436;2022-12-05T09:12:55;101287.72;;;2.46;100.00
18985;BME280;9626;52.552;13.436;2022-12-05T09:15:21;101284.28;;;2.47;100.00
18985;BME280;9626;52.552;13.436;2022-12-05T09:17:47;101273.81;;;2.47;100.00
18985;BME280;9626;52.552;13.436;2022-12-05T09:20:13;101276.22;;;2.38;100.00
18985;BME280;9626;52.552;13.436;2022-12-05T09:22:40;101274.38;;;2.33;100.00
18985;BME280;9626;52.552;13.436;2022-12-05T09:25:06;101267.44;;;2.35;100.00
18985;BME280;9626;52.552;13.436;2022-12-05T09:27:33;101276.22;;;2.38;100.00
18985;BME280;9626;52.552;13.436;2022-12-05T09:29:59;101271.91;;;2.41;100.00
18985;BME280;9626;52.552;13.436;2022-12-05T09:32:25;101271.13;;;2.45;100.00
18985;BME280;9626;52.552;13.436;2022-12-05T09:34:51;101270.09;;;2.37;100.00
18985;BME280;9626;52.552;13.436;2022-12-05T09:37:17;101271.91;;;2.41;100.00
18985;BME280;9626;52.552;13.436;2022-12-05T09:39:43;101262.28;;;2.39;100.00
18985;BME280;9626;52.552;13.436;2022-12-05T09:55:29;101272.84;;;2.43;100.00
18985;BME280;9626;52.552;13.436;2022-12-05T09:58:01;101270.31;;;2.46;100.00
18985;BME280;9626;52.552;13.436;2022-12-05T10:00:31;101271.00;;;2.38;100.00
18985;BME280;9626;52.552;13.436;2022-12-05T10:03:35;101264.19;;;2.46;100.00
18985;BME280;9626;52.552;13.436;2022-12-05T10:06:18;101264.25;;;2.49;100.00
18985;BME280;9626;52.552;13.436;2022-12-05T10:09:04;101261.56;;;2.44;100.00
18985;BME280;9626;52.552;13.436;2022-12-05T10:11:42;101268.47;;;2.42;100.00
18985;BME280;9626;52.552;13.436;2022-12-05T10:14:14;101257.25;;;2.48;100.00
18985;BME280;9626;52.552;13.436;2022-12-05T10:16:50;101258.16;;;2.48;100.00
18985;BME280;9626;52.552;13.436;2022-12-05T10:19:24;101260.66;;;2.44;100.00
18985;BME280;9626;52.552;13.436;2022-12-05T10:21:58;101261.63;;;2.47;100.00
18985;BME280;9626;52.552;13.436;2022-12-05T10:24:38;101257.34;;;2.51;100.00
18985;BME280;9626;52.552;13.436;2022-12-05T10:27:09;101259.88;;;2.48;100.00
18985;BME280;9626;52.552;13.436;2022-12-05T10:29:44;101259.97;;;2.51;100.00
18985;BME280;9626;52.552;13.436;2022-12-05T10:32:16;101255.63;;;2.53;100.00
18985;BME280;9626;52.552;13.436;2022-12-05T10:34:44;101261.06;;;2.62;100.00
18985;BME280;9626;52.552;13.436;2022-12-05T10:37:14;101260.09;;;2.57;100.00
18985;BME280;9626;52.552;13.436;2022-12-05T10:39:40;101259.97;;;2.51;100.00
18985;BME280;9626;52.552;13.436;2022-12-05T10:42:11;101257.34;;;2.51;100.00
18985;BME280;9626;52.552;13.436;2022-12-05T10:44:38;101252.13;;;2.51;100.00
18985;BME280;9626;52.552;13.436;2022-12-05T10:47:05;101245.84;;;2.43;100.00
18985;BME280;9626;52.552;13.436;2022-12-05T10:49:33;101252.94;;;2.48;100.00
18985;BME280;9626;52.552;13.436;2022-12-05T10:52:00;101256.44;;;2.50;100.00
18985;BME280;9626;52.552;13.436;2022-12-05T10:54:29;101249.34;;;2.45;100.00
18985;BME280;9626;52.552;13.436;2022-12-05T10:56:56;101257.97;;;2.41;100.00
18985;BME280;9626;52.552;13.436;2022-12-05T10:59:36;101257.94;;;2.39;100.00
18985;BME280;9626;52.552;13.436;2022-12-05T11:02:20;101257.09;;;2.40;100.00
18985;BME280;9626;52.552;13.436;2022-12-05T11:04:46;101251.97;;;2.45;100.00
18985;BME280;9626;52.552;13.436;2022-12-05T11:07:34;101253.81;;;2.49;100.00
18985;BME280;9626;52.552;13.436;2022-12-05T11:10:04;101251.28;;;2.53;100.00
18985;BME280;9626;52.552;13.436;2022-12-05T11:12:43;101248.56;;;2.49;100.00
18985;BME280;9626;52.552;13.436;2022-12-05T11:17:45;101249.56;;;2.54;100.00
18985;BME280;9626;52.552;13.436;2022-12-05T11:22:47;101254.66;;;2.48;100.00
18985;BME280;9626;52.552;13.436;2022-12-05T11:25:33;101252.94;;;2.48;100.00
18985;BME280;9626;52.552;13.436;2022-12-05T11:30:57;101238.22;;;2.53;100.00
18985;BME280;9626;52.552;13.436;2022-12-05T11:33:25;101236.56;;;2.57;100.00
18985;BME280;9626;52.552;13.436;2022-12-05T11:35:54;101239.91;;;2.51;100.00
18985;BME280;9626;52.552;13.436;2022-12-05T11:38:25;101239.94;;;2.53;100.00
18985;BME280;9626;52.552;13.436;2022-12-05T11:40:57;101240.88;;;2.55;100.00
18985;BME280;9626;52.552;13.436;2022-12-05T11:43:37;101243.56;;;2.58;100.00
18985;BME280;9626;52.552;13.436;2022-12-05T11:51:50;101243.75;;;2.67;100.00
18985;BME280;9626;52.552;13.436;2022-12-05T11:56:55;101242.50;;;2.50;100.00
18985;BME280;9626;52.552;13.436;2022-12-05T12:11:30;101216.56;;;2.59;100.00
18985;BME280;9626;52.552;13.436;2022-12-05T12:13:29;101215.53;;;2.51;100.00
18985;BME280;9626;52.552;13.436;2022-12-05T12:19:16;101210.56;;;2.63;100.00
18985;BME280;9626;52.552;13.436;2022-12-05T12:27:25;101217.59;;;2.66;100.00
18985;BME280;9626;52.552;13.436;2022-12-05T12:30:10;101216.63;;;2.62;100.00
18985;BME280;9626;52.552;13.436;2022-12-05T12:36:17;101221.53;;;2.47;100.00
18985;BME280;9626;52.552;13.436;2022-12-05T12:47:50;101206.81;;;2.52;100.00
18985;BME280;9626;52.552;13.436;2022-12-05T12:50:30;101203.44;;;2.58;100.00
18985;BME280;9626;52.552;13.436;2022-12-05T12:53:26;101201.72;;;2.58;100.00
18985;BME280;9626;52.552;13.436;2022-12-05T12:56:05;101199.75;;;2.48;100.00
18985;BME280;9626;52.552;13.436;2022-12-05T13:01:57;101204.28;;;2.55;100.00
18985;BME280;9626;52.552;13.436;2022-12-05T13:04:34;101201.84;;;2.64;100.00
18985;BME280;9626;52.552;13.436;2022-12-05T13:07:11;101198.28;;;2.59;100.00
18985;BME280;9626;52.552;13.436;2022-12-05T13:10:27;101197.47;;;2.63;100.00
18985;BME280;9626;52.552;13.436;2022-12-05T13:12:56;101200.09;;;2.63;100.00
18985;BME280;9626;52.552;13.436;2022-12-05T13:17:58;101201.00;;;2.65;100.00
18985;BME280;9626;52.552;13.436;2022-12-05T13:20:31;101195.78;;;2.67;100.00
18985;BME280;9626;52.552;13.436;2022-12-05T13:22:59;101199.31;;;2.67;100.00
18985;BME280;9626;52.552;13.436;2022-12-05T13:25:29;101199.31;;;2.67;100.00
18985;BME280;9626;52.552;13.436;2022-12-05T13:27:58;101200.34;;;2.76;100.00
18985;BME280;9626;52.552;13.436;2022-12-05T13:30:24;101202.97;;;2.76;100.00
18985;BME280;9626;52.552;13.436;2022-12-05T13:32:57;101199.59;;;2.81;100.00
18985;BME280;9626;52.552;13.436;2022-12-05T13:35:34;101194.13;;;2.70;100.00
18985;BME280;9626;52.552;13.436;2022-12-05T13:38:21;101202.75;;;2.65;100.00
18985;BME280;9626;52.552;13.436;2022-12-05T13:41:07;101197.66;;;2.73;100.00
18985;BME280;9626;52.552;13.436;2022-12-05T13:43:52;101202.97;;;2.76;100.00
18985;BME280;9626;52.552;13.436;2022-12-05T13:46:27;101200.22;;;2.69;100.00
18985;BME280;9626;52.552;13.436;2022-12-05T13:49:00;101197.63;;;2.71;100.00
18985;BME280;9626;52.552;13.436;2022-12-05T13:51:34;101194.13;;;2.70;100.00
18985;BME280;9626;52.552;13.436;2022-12-05T13:54:26;101194.06;;;2.67;100.00
18985;BME280;9626;52.552;13.436;2022-12-05T13:56:54;101201.13;;;2.72;100.00
18985;BME280;9626;52.552;13.436;2022-12-05T14:07:50;101205.50;;;2.73;100.00
18985;BME280;9626;52.552;13.436;2022-12-05T14:15:42;101208.91;;;2.68;100.00
18985;BME280;9626;52.552;13.436;2022-12-05T14:18:26;101210.66;;;2.69;100.00
18985;BME280;9626;52.552;13.436;2022-12-05T14:26:50;101206.25;;;2.67;100.00
18985;BME280;9626;52.552;13.436;2022-12-05T14:29:43;101209.81;;;2.70;100.00
18985;BME280;9626;52.552;13.436;2022-12-05T14:32:23;101216.94;;;2.78;100.00
18985;BME280;9626;52.552;13.436;2022-12-05T14:35:00;101212.50;;;2.74;100.00
18985;BME280;9626;52.552;13.436;2022-12-05T14:37:32;101210.84;;;2.77;100.00
18985;BME280;9626;52.552;13.436;2022-12-05T14:40:17;101200.41;;;2.79;100.00
18985;BME280;9626;52.552;13.436;2022-12-05T14:43:07;101214.31;;;2.78;100.00
18985;BME280;9626;52.552;13.436;2022-12-05T14:46:03;101202.25;;;2.84;100.00
18985;BME280;9626;52.552;13.436;2022-12-05T14:48:37;101203.19;;;2.86;100.00
18985;BME280;9626;52.552;13.436;2022-12-05T14:51:53;101202.28;;;2.86;100.00
18985;BME280;9626;52.552;13.436;2022-12-05T14:54:14;101200.47;;;2.82;100.00
18985;BME280;9626;52.552;13.436;2022-12-05T14:56:47;101207.59;;;2.89;100.00
18985;BME280;9626;52.552;13.436;2022-12-05T15:02:26;101201.38;;;2.84;100.00
18985;BME280;9626;52.552;13.436;2022-12-05T15:04:59;101195.22;;;2.82;100.00
18985;BME280;9626;52.552;13.436;2022-12-05T15:07:37;101200.44;;;2.80;100.00
18985;BME280;9626;52.552;13.436;2022-12-05T15:12:58;101195.16;;;2.79;100.00
18985;BME280;9626;52.552;13.436;2022-12-05T15:15:46;101199.53;;;2.78;100.00
18985;BME280;9626;52.552;13.436;2022-12-05T15:18:30;101207.31;;;2.77;100.00
18985;BME280;9626;52.552;13.436;2022-12-05T15:21:08;101200.41;;;2.79;100.00
18985;BME280;9626;52.552;13.436;2022-12-05T15:29:10;101210.00;;;2.78;100.00